sensor_id;sensor_type;location;lat;lon;timestamp;temperature;humidity
25640;DHT22;13497;48.322;16.204;2023-09-12T00:01:42;18.70;99.90
25640;DHT22;13497;48.322;16.204;2023-09-12T00:04:08;18.60;99.90
25640;DHT22;13497;48.322;16.204;2023-09-12T00:06:34;18.50;99.90
25640;DHT22;13497;48.322;16.204;2023-09-12T00:08:59;18.40;99.90
25640;DHT22;13497;48.322;16.204;2023-09-12T00:11:25;18.40;99.90
25640;DHT22;13497;48.322;16.204;2023-09-12T00:13:51;18.40;99.90
25640;DHT22;13497;48.322;16.204;2023-09-12T00:16:17;18.60;99.90
25640;DHT22;13497;48.322;16.204;2023-09-12T00:18:43;18.60;99.90
25640;DHT22;13497;48.322;16.204;2023-09-12T00:21:09;18.60;99.90
25640;DHT22;13497;48.322;16.204;2023-09-12T00:23:35;18.60;99.90
25640;DHT22;13497;48.322;16.204;2023-09-12T00:26:00;18.50;99.90
25640;DHT22;13497;48.322;16.204;2023-09-12T00:28:26;18.40;99.90
25640;DHT22;13497;48.322;16.204;2023-09-12T00:30:52;18.30;99.90
25640;DHT22;13497;48.322;16.204;2023-09-12T00:33:18;18.20;99.90
25640;DHT22;13497;48.322;16.204;2023-09-12T00:35:44;18.20;99.90
25640;DHT22;13497;48.322;16.204;2023-09-12T00:38:10;18.20;99.90
25640;DHT22;13497;48.322;16.204;2023-09-12T00:40:36;18.20;99.90
25640;DHT22;13497;48.322;16.204;2023-09-12T00:43:03;18.20;99.90
25640;DHT22;13497;48.322;16.204;2023-09-12T00:45:28;18.30;99.90
25640;DHT22;13497;48.322;16.204;2023-09-12T00:47:56;18.20;99.90
25640;DHT22;13497;48.322;16.204;2023-09-12T00:50:25;18.20;99.90
25640;DHT22;13497;48.322;16.204;2023-09-12T00:52:52;18.20;99.90
25640;DHT22;13497;48.322;16.204;2023-09-12T00:55:19;18.30;99.90
25640;DHT22;13497;48.322;16.204;2023-09-12T00:57:45;18.20;99.90
25640;DHT22;13497;48.322;16.204;2023-09-12T01:00:11;18.10;99.90
25640;DHT22;13497;48.322;16.204;2023-09-12T01:02:45;18.00;99.90
25640;DHT22;13497;48.322;16.204;2023-09-12T01:05:13;17.80;99.90
25640;DHT22;13497;48.322;16.204;2023-09-12T01:07:39;17.80;99.90
25640;DHT22;13497;48.322;16.204;2023-09-12T01:10:06;17.90;99.90
25640;DHT22;13497;48.322;16.204;2023-09-12T01:12:32;17.90;99.90
25640;DHT22;13497;48.322;16.204;2023-09-12T01:14:58;17.90;99.90
25640;DHT22;13497;48.322;16.204;2023-09-12T01:17:24;17.80;99.90
25640;DHT22;13497;48.322;16.204;2023-09-12T01:19:50;17.80;99.90
25640;DHT22;13497;48.322;16.204;2023-09-12T01:22:34;17.80;99.90
25640;DHT22;13497;48.322;16.204;2023-09-12T01:27:49;17.70;99.90
25640;DHT22;13497;48.322;16.204;2023-09-12T01:30:18;17.70;99.90
25640;DHT22;13497;48.322;16.204;2023-09-12T01:32:46;17.80;99.90
25640;DHT22;13497;48.322;16.204;2023-09-12T01:35:12;17.80;99.90
25640;DHT22;13497;48.322;16.204;2023-09-12T01:37:38;17.80;99.90
25640;DHT22;13497;48.322;16.204;2023-09-12T01:40:04;17.80;99.90
25640;DHT22;13497;48.322;16.204;2023-09-12T01:42:36;17.70;99.90
25640;DHT22;13497;48.322;16.204;2023-09-12T01:45:03;17.60;99.90
25640;DHT22;13497;48.322;16.204;2023-09-12T01:47:30;17.60;99.90
25640;DHT22;13497;48.322;16.204;2023-09-12T01:49:57;17.70;99.90
25640;DHT22;13497;48.322;16.204;2023-09-12T01:52:27;17.60;99.90
25640;DHT22;13497;48.322;16.204;2023-09-12T01:54:54;17.60;99.90
25640;DHT22;13497;48.322;16.204;2023-09-12T01:57:21;17.60;99.90
25640;DHT22;13497;48.322;16.204;2023-09-12T01:59:48;17.70;99.90
25640;DHT22;13497;48.322;16.204;2023-09-12T02:02:17;17.70;99.90
25640;DHT22;13497;48.322;16.204;2023-09-12T02:04:58;17.70;99.90
25640;DHT22;13497;48.322;16.204;2023-09-12T02:07:31;17.60;99.90
25640;DHT22;13497;48.322;16.204;2023-09-12T02:09:58;17.60;99.90
25640;DHT22;13497;48.322;16.204;2023-09-12T02:12:23;17.70;99.90
25640;DHT22;13497;48.322;16.204;2023-09-12T02:14:49;17.70;99.90
25640;DHT22;13497;48.322;16.204;2023-09-12T02:17:15;17.70;99.90
25640;DHT22;13497;48.322;16.204;2023-09-12T02:19:40;17.70;99.90
25640;DHT22;13497;48.322;16.204;2023-09-12T02:22:06;17.60;99.90
25640;DHT22;13497;48.322;16.204;2023-09-12T02:24:34;17.60;99.90
25640;DHT22;13497;48.322;16.204;2023-09-12T02:27:00;17.60;99.90
25640;DHT22;13497;48.322;16.204;2023-09-12T02:29:26;17.50;99.90
25640;DHT22;13497;48.322;16.204;2023-09-12T02:31:51;17.50;99.90
25640;DHT22;13497;48.322;16.204;2023-09-12T02:34:17;17.40;99.90
25640;DHT22;13497;48.322;16.204;2023-09-12T02:36:42;17.40;99.90
25640;DHT22;13497;48.322;16.204;2023-09-12T02:39:08;17.50;99.90
25640;DHT22;13497;48.322;16.204;2023-09-12T02:41:34;17.50;99.90
25640;DHT22;13497;48.322;16.204;2023-09-12T02:43:59;17.50;99.90
25640;DHT22;13497;48.322;16.204;2023-09-12T02:46:25;17.50;99.90
25640;DHT22;13497;48.322;16.204;2023-09-12T02:48:50;17.40;99.90
25640;DHT22;13497;48.322;16.204;2023-09-12T02:51:16;17.40;99.90
25640;DHT22;13497;48.322;16.204;2023-09-12T02:53:42;17.50;99.90
25640;DHT22;13497;48.322;16.204;2023-09-12T02:56:07;17.50;99.90
25640;DHT22;13497;48.322;16.204;2023-09-12T02:58:33;17.50;99.90
25640;DHT22;13497;48.322;16.204;2023-09-12T03:00:59;17.50;99.90
25640;DHT22;13497;48.322;16.204;2023-09-12T03:03:25;17.40;99.90
25640;DHT22;13497;48.322;16.204;2023-09-12T03:06:00;17.40;99.90
25640;DHT22;13497;48.322;16.204;2023-09-12T03:08:28;17.40;99.90
25640;DHT22;13497;48.322;16.204;2023-09-12T03:10:57;17.30;99.90
25640;DHT22;13497;48.322;16.204;2023-09-12T03:13:28;17.20;99.90
25640;DHT22;13497;48.322;16.204;2023-09-12T03:15:54;17.20;99.90
25640;DHT22;13497;48.322;16.204;2023-09-12T03:18:20;17.20;99.90
25640;DHT22;13497;48.322;16.204;2023-09-12T03:20:45;17.30;99.90
25640;DHT22;13497;48.322;16.204;2023-09-12T03:23:11;17.20;99.90
25640;DHT22;13497;48.322;16.204;2023-09-12T03:25:37;17.10;99.90
25640;DHT22;13497;48.322;16.204;2023-09-12T03:28:07;17.00;99.90
25640;DHT22;13497;48.322;16.204;2023-09-12T03:30:33;17.00;99.90
25640;DHT22;13497;48.322;16.204;2023-09-12T03:32:59;17.00;99.90
25640;DHT22;13497;48.322;16.204;2023-09-12T03:35:26;17.00;99.90
25640;DHT22;13497;48.322;16.204;2023-09-12T03:37:52;17.10;99.90
25640;DHT22;13497;48.322;16.204;2023-09-12T03:40:17;17.10;99.90
25640;DHT22;13497;48.322;16.204;2023-09-12T03:42:43;17.10;99.90
25640;DHT22;13497;48.322;16.204;2023-09-12T03:45:09;17.10;99.90
25640;DHT22;13497;48.322;16.204;2023-09-12T03:47:35;17.10;99.90
25640;DHT22;13497;48.322;16.204;2023-09-12T03:50:00;17.10;99.90
25640;DHT22;13497;48.322;16.204;2023-09-12T03:52:26;17.10;99.90
25640;DHT22;13497;48.322;16.204;2023-09-12T03:54:51;17.00;99.90
25640;DHT22;13497;48.322;16.204;2023-09-12T03:57:17;17.00;99.90
25640;DHT22;13497;48.322;16.204;2023-09-12T03:59:43;17.00;99.90
25640;DHT22;13497;48.322;16.204;2023-09-12T04:02:08;17.00;99.90
25640;DHT22;13497;48.322;16.204;2023-09-12T04:04:34;17.00;99.90
25640;DHT22;13497;48.322;16.204;2023-09-12T04:07:00;17.00;99.90
25640;DHT22;13497;48.322;16.204;2023-09-12T04:09:26;17.00;99.90
25640;DHT22;13497;48.322;16.204;2023-09-12T04:11:53;17.10;99.90
25640;DHT22;13497;48.322;16.204;2023-09-12T04:14:18;17.00;99.90
25640;DHT22;13497;48.322;16.204;2023-09-12T04:16:44;17.10;99.90
25640;DHT22;13497;48.322;16.204;2023-09-12T04:19:10;17.10;99.90
25640;DHT22;13497;48.322;16.204;2023-09-12T04:21:35;16.90;99.90
25640;DHT22;13497;48.322;16.204;2023-09-12T04:24:01;16.80;99.90
25640;DHT22;13497;48.322;16.204;2023-09-12T04:26:26;16.80;99.90
25640;DHT22;13497;48.322;16.204;2023-09-12T04:28:52;16.90;99.90
25640;DHT22;13497;48.322;16.204;2023-09-12T04:31:18;16.90;99.90
25640;DHT22;13497;48.322;16.204;2023-09-12T04:33:43;17.00;99.90
25640;DHT22;13497;48.322;16.204;2023-09-12T04:36:09;17.10;99.90
25640;DHT22;13497;48.322;16.204;2023-09-12T04:38:35;17.10;99.90
25640;DHT22;13497;48.322;16.204;2023-09-12T04:41:03;17.20;99.90
25640;DHT22;13497;48.322;16.204;2023-09-12T04:43:31;17.20;99.90
25640;DHT22;13497;48.322;16.204;2023-09-12T04:45:57;17.20;99.90
25640;DHT22;13497;48.322;16.204;2023-09-12T04:48:22;17.20;99.90
25640;DHT22;13497;48.322;16.204;2023-09-12T04:50:48;17.20;99.90
25640;DHT22;13497;48.322;16.204;2023-09-12T04:53:14;17.10;99.90
25640;DHT22;13497;48.322;16.204;2023-09-12T04:55:40;17.00;99.90
25640;DHT22;13497;48.322;16.204;2023-09-12T04:58:07;17.00;99.90
25640;DHT22;13497;48.322;16.204;2023-09-12T05:00:33;17.10;99.90
25640;DHT22;13497;48.322;16.204;2023-09-12T05:02:59;17.10;99.90
25640;DHT22;13497;48.322;16.204;2023-09-12T05:05:25;17.30;99.90
25640;DHT22;13497;48.322;16.204;2023-09-12T05:07:51;17.20;99.90
25640;DHT22;13497;48.322;16.204;2023-09-12T05:10:19;17.30;99.90
25640;DHT22;13497;48.322;16.204;2023-09-12T05:12:45;17.30;99.90
25640;DHT22;13497;48.322;16.204;2023-09-12T05:15:10;17.30;99.90
25640;DHT22;13497;48.322;16.204;2023-09-12T05:17:36;17.20;99.90
25640;DHT22;13497;48.322;16.204;2023-09-12T05:20:05;17.40;99.90
25640;DHT22;13497;48.322;16.204;2023-09-12T05:22:31;17.90;99.90
25640;DHT22;13497;48.322;16.204;2023-09-12T05:24:57;18.70;99.90
25640;DHT22;13497;48.322;16.204;2023-09-12T05:27:22;19.50;99.90
25640;DHT22;13497;48.322;16.204;2023-09-12T05:29:48;19.90;99.90
25640;DHT22;13497;48.322;16.204;2023-09-12T05:32:14;20.30;99.90
25640;DHT22;13497;48.322;16.204;2023-09-12T05:34:41;20.60;99.90
25640;DHT22;13497;48.322;16.204;2023-09-12T05:37:06;20.90;99.90
25640;DHT22;13497;48.322;16.204;2023-09-12T05:39:32;21.10;99.90
25640;DHT22;13497;48.322;16.204;2023-09-12T05:41:58;21.30;99.90
25640;DHT22;13497;48.322;16.204;2023-09-12T05:44:23;21.60;99.90
25640;DHT22;13497;48.322;16.204;2023-09-12T05:46:49;21.90;99.90
25640;DHT22;13497;48.322;16.204;2023-09-12T05:49:15;22.10;99.90
25640;DHT22;13497;48.322;16.204;2023-09-12T05:51:40;22.10;99.90
25640;DHT22;13497;48.322;16.204;2023-09-12T05:54:07;21.60;99.90
25640;DHT22;13497;48.322;16.204;2023-09-12T05:56:34;20.90;99.90
25640;DHT22;13497;48.322;16.204;2023-09-12T05:58:59;20.50;99.90
25640;DHT22;13497;48.322;16.204;2023-09-12T06:01:25;20.10;99.90
25640;DHT22;13497;48.322;16.204;2023-09-12T06:03:51;20.00;99.90
25640;DHT22;13497;48.322;16.204;2023-09-12T06:06:16;20.00;99.90
25640;DHT22;13497;48.322;16.204;2023-09-12T06:08:42;19.90;99.90
25640;DHT22;13497;48.322;16.204;2023-09-12T06:11:09;19.90;99.90
25640;DHT22;13497;48.322;16.204;2023-09-12T06:13:35;19.90;99.90
25640;DHT22;13497;48.322;16.204;2023-09-12T06:16:03;19.90;99.90
25640;DHT22;13497;48.322;16.204;2023-09-12T06:18:29;19.90;99.90
25640;DHT22;13497;48.322;16.204;2023-09-12T06:20:57;20.00;99.90
25640;DHT22;13497;48.322;16.204;2023-09-12T06:23:23;20.10;99.90
25640;DHT22;13497;48.322;16.204;2023-09-12T06:25:49;20.10;99.90
25640;DHT22;13497;48.322;16.204;2023-09-12T06:28:27;20.10;99.90
25640;DHT22;13497;48.322;16.204;2023-09-12T06:30:53;20.10;99.90
25640;DHT22;13497;48.322;16.204;2023-09-12T06:33:18;20.20;99.90
25640;DHT22;13497;48.322;16.204;2023-09-12T06:35:48;20.30;99.90
25640;DHT22;13497;48.322;16.204;2023-09-12T06:38:14;20.30;99.90
25640;DHT22;13497;48.322;16.204;2023-09-12T06:40:39;20.40;99.90
25640;DHT22;13497;48.322;16.204;2023-09-12T06:43:05;20.50;99.90
25640;DHT22;13497;48.322;16.204;2023-09-12T06:45:30;20.50;99.90
25640;DHT22;13497;48.322;16.204;2023-09-12T06:47:58;20.60;99.90
25640;DHT22;13497;48.322;16.204;2023-09-12T06:50:23;20.80;99.90
25640;DHT22;13497;48.322;16.204;2023-09-12T06:52:49;20.70;99.90
25640;DHT22;13497;48.322;16.204;2023-09-12T06:55:15;20.70;99.90
25640;DHT22;13497;48.322;16.204;2023-09-12T06:57:40;20.80;99.90
25640;DHT22;13497;48.322;16.204;2023-09-12T07:00:07;20.80;99.90
25640;DHT22;13497;48.322;16.204;2023-09-12T07:02:32;20.80;99.90
25640;DHT22;13497;48.322;16.204;2023-09-12T07:04:58;21.00;99.90
25640;DHT22;13497;48.322;16.204;2023-09-12T07:07:24;21.10;99.90
25640;DHT22;13497;48.322;16.204;2023-09-12T07:09:50;21.30;99.90
25640;DHT22;13497;48.322;16.204;2023-09-12T07:12:15;21.30;99.90
25640;DHT22;13497;48.322;16.204;2023-09-12T07:14:41;21.50;99.90
25640;DHT22;13497;48.322;16.204;2023-09-12T07:17:07;21.50;99.90
25640;DHT22;13497;48.322;16.204;2023-09-12T07:19:33;21.50;99.90
25640;DHT22;13497;48.322;16.204;2023-09-12T07:21:58;21.50;99.90
25640;DHT22;13497;48.322;16.204;2023-09-12T07:24:27;21.60;99.90
25640;DHT22;13497;48.322;16.204;2023-09-12T07:26:53;21.50;99.90
25640;DHT22;13497;48.322;16.204;2023-09-12T07:29:19;21.50;99.90
25640;DHT22;13497;48.322;16.204;2023-09-12T07:31:45;21.50;99.90
25640;DHT22;13497;48.322;16.204;2023-09-12T07:34:10;21.70;99.90
25640;DHT22;13497;48.322;16.204;2023-09-12T07:36:37;21.90;99.90
25640;DHT22;13497;48.322;16.204;2023-09-12T07:39:03;22.00;99.90
25640;DHT22;13497;48.322;16.204;2023-09-12T07:41:30;22.10;99.90
25640;DHT22;13497;48.322;16.204;2023-09-12T07:43:55;22.10;99.90
25640;DHT22;13497;48.322;16.204;2023-09-12T07:46:21;22.20;99.90
25640;DHT22;13497;48.322;16.204;2023-09-12T07:48:47;22.30;99.90
25640;DHT22;13497;48.322;16.204;2023-09-12T07:51:14;22.40;99.90
25640;DHT22;13497;48.322;16.204;2023-09-12T07:53:40;22.50;99.90
25640;DHT22;13497;48.322;16.204;2023-09-12T07:56:08;22.50;99.90
25640;DHT22;13497;48.322;16.204;2023-09-12T07:58:34;22.70;99.90
25640;DHT22;13497;48.322;16.204;2023-09-12T08:01:06;22.80;99.90
25640;DHT22;13497;48.322;16.204;2023-09-12T08:03:34;22.80;99.90
25640;DHT22;13497;48.322;16.204;2023-09-12T08:06:00;22.80;99.90
25640;DHT22;13497;48.322;16.204;2023-09-12T08:08:26;22.80;99.90
25640;DHT22;13497;48.322;16.204;2023-09-12T08:10:52;22.90;99.90
25640;DHT22;13497;48.322;16.204;2023-09-12T08:13:17;23.00;99.90
25640;DHT22;13497;48.322;16.204;2023-09-12T08:15:43;23.10;99.90
25640;DHT22;13497;48.322;16.204;2023-09-12T08:18:09;23.20;99.90
25640;DHT22;13497;48.322;16.204;2023-09-12T08:20:35;23.20;99.90
25640;DHT22;13497;48.322;16.204;2023-09-12T08:23:01;23.40;99.90
25640;DHT22;13497;48.322;16.204;2023-09-12T08:25:27;23.50;99.90
25640;DHT22;13497;48.322;16.204;2023-09-12T08:27:53;23.50;99.90
25640;DHT22;13497;48.322;16.204;2023-09-12T08:30:18;23.60;99.90
25640;DHT22;13497;48.322;16.204;2023-09-12T08:32:44;23.50;99.90
25640;DHT22;13497;48.322;16.204;2023-09-12T08:35:14;23.50;99.90
25640;DHT22;13497;48.322;16.204;2023-09-12T08:37:40;23.60;99.90
25640;DHT22;13497;48.322;16.204;2023-09-12T08:40:08;23.80;99.90
25640;DHT22;13497;48.322;16.204;2023-09-12T08:42:42;23.90;99.90
25640;DHT22;13497;48.322;16.204;2023-09-12T08:45:19;24.00;99.90
25640;DHT22;13497;48.322;16.204;2023-09-12T08:47:53;24.10;99.90
25640;DHT22;13497;48.322;16.204;2023-09-12T08:50:20;24.00;99.90
25640;DHT22;13497;48.322;16.204;2023-09-12T08:52:47;24.10;99.90
25640;DHT22;13497;48.322;16.204;2023-09-12T08:55:13;24.10;99.90
25640;DHT22;13497;48.322;16.204;2023-09-12T08:57:40;24.20;99.90
25640;DHT22;13497;48.322;16.204;2023-09-12T09:00:07;24.20;99.90
25640;DHT22;13497;48.322;16.204;2023-09-12T09:02:43;24.30;99.90
25640;DHT22;13497;48.322;16.204;2023-09-12T09:05:10;24.50;99.90
25640;DHT22;13497;48.322;16.204;2023-09-12T09:07:40;24.60;99.90
25640;DHT22;13497;48.322;16.204;2023-09-12T09:10:13;24.50;99.90
25640;DHT22;13497;48.322;16.204;2023-09-12T09:12:40;24.50;99.90
25640;DHT22;13497;48.322;16.204;2023-09-12T09:15:22;24.60;99.90
25640;DHT22;13497;48.322;16.204;2023-09-12T09:17:48;24.60;99.90
25640;DHT22;13497;48.322;16.204;2023-09-12T09:20:26;24.60;99.90
25640;DHT22;13497;48.322;16.204;2023-09-12T09:22:59;24.60;99.90
25640;DHT22;13497;48.322;16.204;2023-09-12T09:25:25;24.60;99.90
25640;DHT22;13497;48.322;16.204;2023-09-12T09:27:51;24.60;99.90
25640;DHT22;13497;48.322;16.204;2023-09-12T09:30:16;24.70;99.90
25640;DHT22;13497;48.322;16.204;2023-09-12T09:32:44;24.90;99.90
25640;DHT22;13497;48.322;16.204;2023-09-12T09:35:11;25.10;99.90
25640;DHT22;13497;48.322;16.204;2023-09-12T09:37:38;25.20;99.90
25640;DHT22;13497;48.322;16.204;2023-09-12T09:40:07;25.20;99.90
25640;DHT22;13497;48.322;16.204;2023-09-12T09:42:32;25.30;99.90
25640;DHT22;13497;48.322;16.204;2023-09-12T09:44:58;25.40;99.90
25640;DHT22;13497;48.322;16.204;2023-09-12T09:47:24;25.50;99.90
25640;DHT22;13497;48.322;16.204;2023-09-12T09:49:51;25.50;99.90
25640;DHT22;13497;48.322;16.204;2023-09-12T09:52:25;25.60;99.90
25640;DHT22;13497;48.322;16.204;2023-09-12T09:54:51;25.80;99.90
25640;DHT22;13497;48.322;16.204;2023-09-12T09:57:17;25.90;99.90
25640;DHT22;13497;48.322;16.204;2023-09-12T09:59:48;25.90;99.90
25640;DHT22;13497;48.322;16.204;2023-09-12T10:02:16;26.10;99.90
25640;DHT22;13497;48.322;16.204;2023-09-12T10:04:45;26.10;99.90
25640;DHT22;13497;48.322;16.204;2023-09-12T10:07:11;26.20;99.90
25640;DHT22;13497;48.322;16.204;2023-09-12T10:09:36;26.20;99.90
25640;DHT22;13497;48.322;16.204;2023-09-12T10:12:02;26.40;99.90
25640;DHT22;13497;48.322;16.204;2023-09-12T10:14:28;26.60;99.90
25640;DHT22;13497;48.322;16.204;2023-09-12T10:17:01;26.60;99.90
25640;DHT22;13497;48.322;16.204;2023-09-12T10:19:43;26.60;99.90
25640;DHT22;13497;48.322;16.204;2023-09-12T10:22:21;26.70;99.90
25640;DHT22;13497;48.322;16.204;2023-09-12T10:24:49;26.80;99.90
25640;DHT22;13497;48.322;16.204;2023-09-12T10:27:18;26.90;99.90
25640;DHT22;13497;48.322;16.204;2023-09-12T10:29:44;27.10;99.90
25640;DHT22;13497;48.322;16.204;2023-09-12T10:32:14;27.20;99.90
25640;DHT22;13497;48.322;16.204;2023-09-12T10:34:41;27.30;99.90
25640;DHT22;13497;48.322;16.204;2023-09-12T10:37:15;27.40;99.90
25640;DHT22;13497;48.322;16.204;2023-09-12T10:39:43;27.50;99.90
25640;DHT22;13497;48.322;16.204;2023-09-12T10:42:09;27.60;99.90
25640;DHT22;13497;48.322;16.204;2023-09-12T10:44:36;27.70;99.60
25640;DHT22;13497;48.322;16.204;2023-09-12T10:47:04;27.80;99.40
25640;DHT22;13497;48.322;16.204;2023-09-12T10:49:30;27.80;99.50
25640;DHT22;13497;48.322;16.204;2023-09-12T10:51:56;27.80;99.30
25640;DHT22;13497;48.322;16.204;2023-09-12T10:54:39;27.90;99.10
25640;DHT22;13497;48.322;16.204;2023-09-12T10:57:09;27.90;99.30
25640;DHT22;13497;48.322;16.204;2023-09-12T11:00:09;28.00;99.00
25640;DHT22;13497;48.322;16.204;2023-09-12T11:02:42;28.10;98.60
25640;DHT22;13497;48.322;16.204;2023-09-12T11:08:01;28.30;98.40
25640;DHT22;13497;48.322;16.204;2023-09-12T11:10:27;28.40;98.10
25640;DHT22;13497;48.322;16.204;2023-09-12T11:12:55;28.40;98.20
25640;DHT22;13497;48.322;16.204;2023-09-12T11:15:27;28.50;98.00
25640;DHT22;13497;48.322;16.204;2023-09-12T11:18:02;28.50;97.50
25640;DHT22;13497;48.322;16.204;2023-09-12T11:20:49;28.50;97.70
25640;DHT22;13497;48.322;16.204;2023-09-12T11:23:15;28.60;97.30
25640;DHT22;13497;48.322;16.204;2023-09-12T11:25:40;28.60;97.10
25640;DHT22;13497;48.322;16.204;2023-09-12T11:28:06;28.60;97.00
25640;DHT22;13497;48.322;16.204;2023-09-12T11:30:32;28.60;96.80
25640;DHT22;13497;48.322;16.204;2023-09-12T11:32:59;28.70;96.70
25640;DHT22;13497;48.322;16.204;2023-09-12T11:35:28;28.80;96.30
25640;DHT22;13497;48.322;16.204;2023-09-12T11:37:56;28.90;96.70
25640;DHT22;13497;48.322;16.204;2023-09-12T11:42:58;28.90;96.00
25640;DHT22;13497;48.322;16.204;2023-09-12T11:45:24;28.90;95.80
25640;DHT22;13497;48.322;16.204;2023-09-12T11:47:50;29.00;95.70
25640;DHT22;13497;48.322;16.204;2023-09-12T11:50:35;29.00;95.80
25640;DHT22;13497;48.322;16.204;2023-09-12T11:53:07;29.20;95.70
25640;DHT22;13497;48.322;16.204;2023-09-12T11:55:45;29.30;95.00
25640;DHT22;13497;48.322;16.204;2023-09-12T11:58:12;29.10;94.90
25640;DHT22;13497;48.322;16.204;2023-09-12T12:00:47;29.00;95.10
25640;DHT22;13497;48.322;16.204;2023-09-12T12:03:16;29.00;94.90
25640;DHT22;13497;48.322;16.204;2023-09-12T12:05:43;29.00;94.90
25640;DHT22;13497;48.322;16.204;2023-09-12T12:08:08;29.10;94.90
25640;DHT22;13497;48.322;16.204;2023-09-12T12:10:35;29.30;94.70
25640;DHT22;13497;48.322;16.204;2023-09-12T12:13:03;29.40;94.40
25640;DHT22;13497;48.322;16.204;2023-09-12T12:15:29;29.30;94.00
25640;DHT22;13497;48.322;16.204;2023-09-12T12:17:55;29.30;94.10
25640;DHT22;13497;48.322;16.204;2023-09-12T12:20:21;29.40;93.80
25640;DHT22;13497;48.322;16.204;2023-09-12T12:22:47;29.40;93.80
25640;DHT22;13497;48.322;16.204;2023-09-12T12:25:14;29.40;93.80
25640;DHT22;13497;48.322;16.204;2023-09-12T12:27:41;29.30;93.70
25640;DHT22;13497;48.322;16.204;2023-09-12T12:30:08;29.40;93.80
25640;DHT22;13497;48.322;16.204;2023-09-12T12:32:39;29.60;93.70
25640;DHT22;13497;48.322;16.204;2023-09-12T12:35:09;29.80;93.30
25640;DHT22;13497;48.322;16.204;2023-09-12T12:37:36;29.90;92.80
25640;DHT22;13497;48.322;16.204;2023-09-12T12:40:03;29.80;92.50
25640;DHT22;13497;48.322;16.204;2023-09-12T12:42:34;29.80;92.70
25640;DHT22;13497;48.322;16.204;2023-09-12T12:45:00;29.80;92.60
25640;DHT22;13497;48.322;16.204;2023-09-12T12:47:25;29.90;92.80
25640;DHT22;13497;48.322;16.204;2023-09-12T12:49:52;29.90;92.30
25640;DHT22;13497;48.322;16.204;2023-09-12T12:52:24;29.90;92.00
25640;DHT22;13497;48.322;16.204;2023-09-12T12:54:51;30.10;92.00
25640;DHT22;13497;48.322;16.204;2023-09-12T12:57:20;30.20;91.80
25640;DHT22;13497;48.322;16.204;2023-09-12T12:59:49;30.10;90.80
25640;DHT22;13497;48.322;16.204;2023-09-12T13:02:16;30.10;91.20
25640;DHT22;13497;48.322;16.204;2023-09-12T13:04:42;30.20;90.80
25640;DHT22;13497;48.322;16.204;2023-09-12T13:07:08;30.20;91.00
25640;DHT22;13497;48.322;16.204;2023-09-12T13:09:33;30.30;90.70
25640;DHT22;13497;48.322;16.204;2023-09-12T13:11:59;30.20;90.20
25640;DHT22;13497;48.322;16.204;2023-09-12T13:14:25;30.20;90.30
25640;DHT22;13497;48.322;16.204;2023-09-12T13:17:00;30.10;90.10
25640;DHT22;13497;48.322;16.204;2023-09-12T13:19:26;30.10;90.00
25640;DHT22;13497;48.322;16.204;2023-09-12T13:21:52;30.20;89.90
25640;DHT22;13497;48.322;16.204;2023-09-12T13:24:18;30.30;89.20
25640;DHT22;13497;48.322;16.204;2023-09-12T13:26:44;30.20;89.30
25640;DHT22;13497;48.322;16.204;2023-09-12T13:29:09;30.10;88.50
25640;DHT22;13497;48.322;16.204;2023-09-12T13:31:35;30.10;88.40
25640;DHT22;13497;48.322;16.204;2023-09-12T13:34:01;30.30;88.40
25640;DHT22;13497;48.322;16.204;2023-09-12T13:36:27;30.50;86.80
25640;DHT22;13497;48.322;16.204;2023-09-12T13:38:52;30.50;86.10
25640;DHT22;13497;48.322;16.204;2023-09-12T13:41:18;30.50;86.10
25640;DHT22;13497;48.322;16.204;2023-09-12T13:43:44;30.50;85.60
25640;DHT22;13497;48.322;16.204;2023-09-12T13:46:10;30.50;85.60
25640;DHT22;13497;48.322;16.204;2023-09-12T13:48:36;30.30;86.10
25640;DHT22;13497;48.322;16.204;2023-09-12T13:51:02;30.30;85.60
25640;DHT22;13497;48.322;16.204;2023-09-12T13:53:28;30.30;84.80
25640;DHT22;13497;48.322;16.204;2023-09-12T13:55:53;30.30;85.40
25640;DHT22;13497;48.322;16.204;2023-09-12T13:58:22;30.40;84.80
25640;DHT22;13497;48.322;16.204;2023-09-12T14:00:48;30.40;84.20
25640;DHT22;13497;48.322;16.204;2023-09-12T14:03:14;30.60;83.30
25640;DHT22;13497;48.322;16.204;2023-09-12T14:05:40;30.50;82.70
25640;DHT22;13497;48.322;16.204;2023-09-12T14:08:06;30.50;82.60
25640;DHT22;13497;48.322;16.204;2023-09-12T14:10:32;30.40;82.40
25640;DHT22;13497;48.322;16.204;2023-09-12T14:12:57;30.50;83.20
25640;DHT22;13497;48.322;16.204;2023-09-12T14:15:23;30.50;82.90
25640;DHT22;13497;48.322;16.204;2023-09-12T14:17:48;30.50;82.60
25640;DHT22;13497;48.322;16.204;2023-09-12T14:20:14;30.60;83.40
25640;DHT22;13497;48.322;16.204;2023-09-12T14:22:44;30.60;82.00
25640;DHT22;13497;48.322;16.204;2023-09-12T14:25:10;30.60;82.80
25640;DHT22;13497;48.322;16.204;2023-09-12T14:27:43;30.60;83.10
25640;DHT22;13497;48.322;16.204;2023-09-12T14:30:10;30.50;81.40
25640;DHT22;13497;48.322;16.204;2023-09-12T14:32:37;30.50;82.50
25640;DHT22;13497;48.322;16.204;2023-09-12T14:35:03;30.40;81.40
25640;DHT22;13497;48.322;16.204;2023-09-12T14:37:29;30.40;82.20
25640;DHT22;13497;48.322;16.204;2023-09-12T14:39:55;30.40;82.70
25640;DHT22;13497;48.322;16.204;2023-09-12T14:42:21;30.40;81.70
25640;DHT22;13497;48.322;16.204;2023-09-12T14:44:47;30.30;81.70
25640;DHT22;13497;48.322;16.204;2023-09-12T14:47:13;30.30;83.90
25640;DHT22;13497;48.322;16.204;2023-09-12T14:49:39;30.30;83.70
25640;DHT22;13497;48.322;16.204;2023-09-12T14:52:05;30.30;84.20
25640;DHT22;13497;48.322;16.204;2023-09-12T14:54:30;30.20;84.50
25640;DHT22;13497;48.322;16.204;2023-09-12T14:56:56;30.20;85.00
25640;DHT22;13497;48.322;16.204;2023-09-12T14:59:22;30.20;85.40
25640;DHT22;13497;48.322;16.204;2023-09-12T15:01:47;30.10;86.30
25640;DHT22;13497;48.322;16.204;2023-09-12T15:04:13;30.00;85.60
25640;DHT22;13497;48.322;16.204;2023-09-12T15:06:39;29.80;86.80
25640;DHT22;13497;48.322;16.204;2023-09-12T15:09:05;29.70;88.40
25640;DHT22;13497;48.322;16.204;2023-09-12T15:11:31;29.70;87.80
25640;DHT22;13497;48.322;16.204;2023-09-12T15:13:57;29.70;88.30
25640;DHT22;13497;48.322;16.204;2023-09-12T15:16:23;29.60;88.90
25640;DHT22;13497;48.322;16.204;2023-09-12T15:18:51;29.60;89.70
25640;DHT22;13497;48.322;16.204;2023-09-12T15:21:17;29.60;89.80
25640;DHT22;13497;48.322;16.204;2023-09-12T15:23:43;29.50;89.00